Flight Track Log - Related Links

Times and Time Zones

All times are in EDT time to prevent confusion due to time zone crossing. See the UPS9330 flight status page for this flight to view local times or setup timezone preferences in your user account.


Time Position Orientation Groundspeed Altitude Reporting Facility
EDT Latitude Longitude Course Direction KTS MPH feet Rate Location/Type
Tue 08:01:57 PM 38.1590 -85.7210 165° South 149 171 2,500  Level FlightAware ADS-B
Tue 08:02:27 PM 38.1380 -85.7130 163° South 168 193 4,500 3,382 Climbing FlightAware ADS-B
Tue 08:02:52 PM 38.1160 -85.7060 166° South 221 254 5,600 2,850 Climbing FlightAware ADS-B
Tue 08:03:07 PM 38.0990 -85.6980 160° South 259 298 6,400 4,000 Climbing FlightAware ADS-B
Tue 08:03:22 PM 38.0870 -85.6830 135° Southeast 276 318 7,600 4,600 Climbing FlightAware ADS-B
Tue 08:03:37 PM 38.0790 -85.6570 111° Southeast 310 357 8,700 3,450 Climbing FlightAware ADS-B
Tue 08:04:02 PM 38.0760 -85.6130 95° East 321 369 9,900 1,543 Climbing FlightAware ADS-B
Tue 08:04:47 PM 38.0690 -85.5220 96° East 378 435 10,500 900 Climbing FlightAware ADS-B
Tue 08:05:42 PM 38.0200 -85.4220 122° Southeast 399 459 11,400 3,529 Climbing FlightAware ADS-B
Tue 08:06:12 PM 37.9820 -85.3470 123° Southeast 442 509 15,500 5,571 Climbing FlightAware ADS-B
Tue 08:06:52 PM 37.9280 -85.2670 131° Southeast 450 518 17,900 3,525 Climbing FlightAware ADS-B
Tue 08:07:32 PM 37.8700 -85.1920 134° Southeast 462 532 20,200 3,247 Climbing FlightAware ADS-B
Tue 08:08:17 PM 37.8000 -85.1000 134° Southeast 478 550 22,500 1,980 Climbing FlightAware ADS-B
Tue 08:09:12 PM 37.7130 -84.9960 137° Southeast 484 557 23,500 1,933 Climbing FlightAware ADS-B
Tue 08:09:47 PM 37.6510 -84.9310 140° Southeast 490 564 25,400 3,344 Climbing FlightAware ADS-B
Tue 08:10:13 PM 37.6021 -84.8783 140° Southeast 489 563 26,900 3,517 Climbing FlightAware ADS-B
Tue 08:10:45 PM 37.5477 -84.8190 139° Southeast 485 558 28,800 3,281 Climbing FlightAware ADS-B
Tue 08:11:17 PM 37.4990 -84.7650 139° Southeast 479 551 30,400 2,051 Climbing FlightAware ADS-B
Tue 08:12:04 PM 37.4152 -84.6737 139° Southeast 480 552 31,500 1,870 Climbing FlightAware ADS-B
Tue 08:12:34 PM 37.3652 -84.6196 139° Southeast 476 548 32,800 2,258 Climbing FlightAware ADS-B
Tue 08:13:37 PM 37.2660 -84.5120 139° Southeast 471 542 35,000 2,083 Climbing FlightAware ADS-B
Tue 08:13:46 PM 37.2449 -84.4885 138° Southeast 477 549 35,300 1,650 Climbing FlightAware ADS-B
Tue 08:14:17 PM 37.1980 -84.4380 139° Southeast 476 548 36,100 1,787 Climbing FlightAware ADS-B
Tue 08:14:33 PM 37.1668 -84.4057 140° Southeast 476 548 36,700 871 Climbing FlightAware ADS-B
Tue 08:15:19 PM 37.0894 -84.3222 139° Southeast 484 557 37,000 196 Climbing FlightAware ADS-B
Tue 08:16:05 PM 37.0099 -84.2367 139° Southeast 482 555 37,000  Level FlightAware ADS-B
Tue 08:16:35 PM 36.9592 -84.1824 139° Southeast 480 552 37,000  Level FlightAware ADS-B
Tue 08:17:07 PM 36.9055 -84.1249 139° Southeast 479 551 37,000  Level FlightAware ADS-B
Tue 08:17:38 PM 36.8544 -84.0710 140° Southeast 479 551 37,000  Level FlightAware ADS-B
Tue 08:18:22 PM 36.7794 -83.9922 140° Southeast 478 550 37,000  Level FlightAware ADS-B
Tue 08:19:07 PM 36.7034 -83.9127 140° Southeast 478 550 37,000  Level FlightAware ADS-B
Tue 08:19:38 PM 36.6499 -83.8564 140° Southeast 476 548 37,000  Level FlightAware ADS-B
Tue 08:20:09 PM 36.5978 -83.8039 141° Southeast 476 548 37,000  Level FlightAware ADS-B
Tue 08:20:39 PM 36.5467 -83.7512 140° Southeast 476 548 37,000  Level FlightAware ADS-B
Tue 08:21:10 PM 36.4950 -83.6968 140° Southeast 477 549 37,000  Level FlightAware ADS-B
Tue 08:21:40 PM 36.4440 -83.6444 140° Southeast 478 550 37,000  Level FlightAware ADS-B
Tue 08:22:11 PM 36.3913 -83.5900 140° Southeast 479 551 37,000  Level FlightAware ADS-B
Tue 08:22:42 PM 36.3380 -83.5355 141° Southeast 478 550 37,000  Level FlightAware ADS-B
Tue 08:23:12 PM 36.2863 -83.4831 141° Southeast 478 550 37,000 -254 Level FlightAware ADS-B
Tue 08:23:53 PM 36.2169 -83.4116 140° Southeast 478 550 36,700 -676 Descending FlightAware ADS-B
Tue 08:24:23 PM 36.1654 -83.3594 141° Southeast 477 549 36,200 -984 Descending FlightAware ADS-B
Tue 08:24:54 PM 36.1133 -83.3058 140° Southeast 475 547 35,700 -984 Descending FlightAware ADS-B
Tue 08:25:24 PM 36.0624 -83.2540 141° Southeast 472 543 35,200 -1,100 Descending FlightAware ADS-B
Tue 08:25:54 PM 36.0122 -83.2031 141° Southeast 466 536 34,600 -1,800 Descending FlightAware ADS-B
Tue 08:26:24 PM 35.9622 -83.1527 141° Southeast 462 532 33,400 -2,647 Descending FlightAware ADS-B
Tue 08:27:02 PM 35.8993 -83.0892 141° Southeast 456 525 31,600 -2,302 Descending FlightAware ADS-B
Tue 08:27:50 PM 35.8227 -83.0118 141° Southeast 441 507 30,100 -1,200 Descending FlightAware ADS-B
Tue 08:28:22 PM 35.7714 -82.9600 141° Southeast 457 526 30,000 -97 Descending FlightAware ADS-B
Tue 08:28:52 PM 35.7193 -82.9090 142° Southeast 475 547 30,000  Level FlightAware ADS-B
Tue 08:29:27 PM 35.6592 -82.8500 141° Southeast 492 566 30,000  Level FlightAware ADS-B
Tue 08:29:57 PM 35.6061 -82.7964 141° Southeast 497 572 30,000  Level FlightAware ADS-B
Tue 08:30:32 PM 35.5427 -82.7318 140° Southeast 497 572 30,000  Level FlightAware ADS-B
Tue 08:31:03 PM 35.4878 -82.6769 141° Southeast 493 567 30,000  Level FlightAware ADS-B
Tue 08:31:34 PM 35.4334 -82.6225 141° Southeast 490 564 30,000 -194 Level FlightAware ADS-B
Tue 08:32:05 PM 35.3790 -82.5682 141° Southeast 491 565 29,800 -738 Descending FlightAware ADS-B
Tue 08:32:39 PM 35.3197 -82.5103 141° Southeast 490 564 29,200 -1,000 Descending FlightAware ADS-B
Tue 08:33:17 PM 35.2523 -82.4426 141° Southeast 485 558 28,600 -943 Descending FlightAware ADS-B
Tue 08:33:49 PM 35.1965 -82.3875 141° Southeast 482 555 28,100 -985 Descending FlightAware ADS-B
Tue 08:34:24 PM 35.1367 -82.3296 142° Southeast 478 550 27,500 -1,015 Descending FlightAware ADS-B
Tue 08:34:54 PM 35.0842 -82.2772 141° Southeast 476 548 27,000 -1,000 Descending FlightAware ADS-B
Tue 08:35:30 PM 35.0236 -82.2182 141° Southeast 474 545 26,400 -1,000 Descending FlightAware ADS-B
Tue 08:36:00 PM 34.9718 -82.1664 141° Southeast 472 543 25,900 -935 Descending FlightAware ADS-B
Tue 08:36:47 PM 34.9010 -82.0990 142° Southeast 467 537 25,200 -483 Descending FlightAware ADS-B
Tue 08:37:27 PM 34.8420 -82.0390 140° Southeast 467 537 25,200  Level FlightAware ADS-B
Tue 08:38:07 PM 34.7840 -81.9820 141° Southeast 467 537 25,200  Level FlightAware ADS-B
Tue 08:38:47 PM 34.7270 -81.9260 141° Southeast 467 537 25,200 -1,200 Level FlightAware ADS-B
Tue 08:39:32 PM 34.6520 -81.8550 142° Southeast 385 443 23,500 -2,267 Descending FlightAware ADS-B
Tue 08:40:17 PM 34.5870 -81.7930 142° Southeast 406 467 21,800 -2,640 Descending FlightAware ADS-B
Tue 08:41:12 PM 34.5100 -81.7160 141° Southeast 419 482 19,100 -1,705 Descending FlightAware ADS-B
Tue 08:41:52 PM 34.4600 -81.6650 140° Southeast 419 482 19,100  Level FlightAware ADS-B
Tue 08:42:32 PM 34.4090 -81.6140 140° Southeast 419 482 19,100 -6,071 Level FlightAware ADS-B
Tue 08:43:17 PM 34.5470 -81.7540 320° Northwest 388 447 10,500 -5,733 Descending FlightAware ADS-B
Tue 08:44:02 PM 34.4900 -81.6940 139° Southeast 388 447 10,500  Level FlightAware ADS-B
Tue 08:44:42 PM 34.4440 -81.6460 139° Southeast 388 447 10,500 -1,895 Level FlightAware ADS-B
Tue 08:45:56 PM 34.1372 -81.4625 139° Southeast 282 325 6,900 -2,284 Descending Jacksonville Center
Tue 08:46:56 PM 34.0833 -81.5036 212° Southwest 220 253 5,400 -1,450 Descending Jacksonville Center
Tue 08:47:56 PM 34.0294 -81.5294 202° Southwest 220 253 4,000 -950 Descending Jacksonville Center
Tue 08:48:56 PM 33.9994 -81.4672 120° Southeast 170 196 3,500 -350 Descending Jacksonville Center
Tue 08:49:56 PM 33.9883 -81.3997 101° East 165 190 3,300 -450 Descending Jacksonville Center
Tue 08:50:56 PM 33.9811 -81.3372 98° East 176 203 2,600 -700 Descending Jacksonville Center

Login

Don't have an account? Register now (free) for customized features, flight alerts, and more!